Wetterdaten: aktuell Dienstag, 05.05.2026 13:40
Datum Zeit Arbeit-Z. Temp. A. Bod.+5cm Temp. A. min Temp. A. max Bl.Temp +1m BTemp -5cm BTemp -10cm BTemp -20cm BTemp -50cm Feuchte I. Feuchte A. BlattFeu +1m BFeucht -5cm BFeucht-10cm BFeucht-20cm BFeucht-50cm Luftdruck Regen Wind Richtung Richtung Sonnenschein ET UV Solar Taupunkt Windchill Windböen Empfang
05.05.2026 13:40 21,9 °C 17,4 °C 16,7 °C 17,4 °C 17,5 °C 16,1 °C 16,1 °C 15,0 °C 15,0 °C 14,4 °C 50 % 78 % 15 lf 200 cb 200 cb 171 cb 89 cb 1005,9 hPa 0,0 l/m² 3,3 km/h (1 Bft) N 350 ° 30 min 0,229 mm 0,9 UV-I 156 W/m² 13,5 °C 17,4 °C 6,4 km/h (2 Bft) 94,87 %
05.05.2026 12:40 22,2 °C 18,5 °C 18,3 °C 18,5 °C 18,8 °C 15,6 °C 15,6 °C 15,0 °C 15,0 °C 14,4 °C 48 % 69 % 0 lf 200 cb 200 cb 170 cb 89 cb 1005,9 hPa 0,0 l/m² 4,4 km/h (1 Bft) W-NW 282 ° 60 min 0,203 mm 1,8 UV-I 278 W/m² 12,7 °C 18,5 °C 9,7 km/h (2 Bft) 96,36 %
05.05.2026 11:40 22,8 °C 17,7 °C 17,8 °C 17,7 °C 17,9 °C 15,0 °C 15,0 °C 15,0 °C 15,0 °C 14,4 °C 48 % 74 % 2 lf 200 cb 200 cb 170 cb 89 cb 1006,2 hPa 0,0 l/m² 3,0 km/h (1 Bft) N-NW 327 ° 60 min 0,178 mm 1,8 UV-I 308 W/m² 13,0 °C 17,7 °C 6,4 km/h (2 Bft) 96,43 %
05.05.2026 10:40 23,0 °C 18,1 °C 17,8 °C 17,9 °C 18,1 °C 15,0 °C 15,0 °C 15,0 °C 15,0 °C 14,4 °C 47 % 74 % 1 lf 200 cb 200 cb 168 cb 89 cb 1006,4 hPa 0,0 l/m² 4,1 km/h (1 Bft) N-NW 333 ° 60 min 0,127 mm 1,6 UV-I 320 W/m² 13,4 °C 18,1 °C 6,4 km/h (2 Bft) 95,00 %
05.05.2026 09:40 22,9 °C 17,1 °C 16,7 °C 16,8 °C 17,1 °C 14,4 °C 14,4 °C 15,0 °C 15,0 °C 14,4 °C 47 % 74 % 0 lf 200 cb 200 cb 167 cb 89 cb 1006,8 hPa 0,0 l/m² 0,2 km/h (0 Bft) S 175 ° 50 min 0,076 mm 1,1 UV-I 269 W/m² 12,4 °C 17,1 °C 1,6 km/h (1 Bft) 93,70 %
05.05.2026 08:40 22,7 °C 15,3 °C 14,4 °C 15,2 °C 15,3 °C 14,4 °C 14,4 °C 15,0 °C 15,0 °C 14,4 °C 46 % 77 % 0 lf 200 cb 200 cb 166 cb 89 cb 1007,1 hPa 0,0 l/m² 2,7 km/h (1 Bft) SO 129 ° 0 min 0,025 mm 0,5 UV-I 149 W/m² 11,3 °C 15,3 °C 6,4 km/h (2 Bft) 100,00 %
05.05.2026 07:40 22,8 °C 14,2 °C 13,3 °C 14,2 °C 14,2 °C 14,4 °C 14,4 °C 15,0 °C 15,0 °C 14,4 °C 46 % 81 % 0 lf 200 cb 200 cb 165 cb 89 cb 1007,1 hPa 0,0 l/m² 1,1 km/h (1 Bft) O 94 ° 0 min 0,000 mm 0,0 UV-I 47 W/m² 11,0 °C 14,2 °C 3,2 km/h (1 Bft) 91,89 %
05.05.2026 06:40 22,8 °C 13,2 °C 12,2 °C 13,0 °C 13,2 °C 14,4 °C 14,4 °C 15,0 °C 15,0 °C 14,4 °C 46 % 85 % 0 lf 200 cb 200 cb 164 cb 89 cb 1007,0 hPa 0,0 l/m² 0,3 km/h (0 Bft) S-SO 154 ° 0 min 0,000 mm 0,0 UV-I 12 W/m² 10,7 °C 13,2 °C 3,2 km/h (1 Bft) 97,87 %
05.05.2026 05:40 22,8 °C 12,3 °C 11,1 °C 12,3 °C 12,4 °C 15,0 °C 15,0 °C 15,6 °C 15,0 °C 14,4 °C 46 % 88 % 1 lf 200 cb 200 cb 162 cb 88 cb 1007,1 hPa 0,0 l/m² 0,0 km/h (0 Bft) S-SO 159 ° 0 min 0,000 mm 0,0 UV-I 0 W/m² 10,4 °C 12,3 °C 0,0 km/h (0 Bft) 92,62 %
05.05.2026 04:40 22,8 °C 13,3 °C 11,7 °C 13,3 °C 13,4 °C 15,0 °C 15,0 °C 15,6 °C 15,0 °C 14,4 °C 46 % 86 % 1 lf 200 cb 200 cb 161 cb 88 cb 1007,7 hPa 0,0 l/m² 0,0 km/h (0 Bft) S-SO 159 ° 0 min 0,001 mm 0,0 UV-I 0 W/m² 11,0 °C 13,3 °C 0,0 km/h (0 Bft) 97,27 %
05.05.2026 03:40 22,9 °C 14,6 °C 13,3 °C 14,5 °C 14,6 °C 15,0 °C 15,0 °C 15,6 °C 15,0 °C 14,4 °C 46 % 81 % 0 lf 200 cb 200 cb 160 cb 88 cb 1008,0 hPa 0,0 l/m² 0,0 km/h (0 Bft) SO 130 ° 0 min 0,025 mm 0,0 UV-I 0 W/m² 11,4 °C 14,6 °C 0,0 km/h (0 Bft) 97,44 %
05.05.2026 02:40 22,9 °C 14,6 °C 13,3 °C 14,5 °C 14,6 °C 15,0 °C 15,0 °C 15,6 °C 15,0 °C 14,4 °C 46 % 83 % 0 lf 200 cb 200 cb 160 cb 88 cb 1008,8 hPa 0,0 l/m² 0,0 km/h (0 Bft) S 172 ° 0 min 0,001 mm 0,0 UV-I 0 W/m² 11,7 °C 14,6 °C 1,6 km/h (1 Bft) 97,44 %
05.05.2026 01:40 22,9 °C 14,5 °C 13,3 °C 14,4 °C 14,5 °C 15,6 °C 15,6 °C 15,6 °C 15,0 °C 14,4 °C 46 % 84 % 0 lf 200 cb 200 cb 159 cb 88 cb 1009,1 hPa 0,0 l/m² 0,8 km/h (0 Bft) S 172 ° 0 min 0,025 mm 0,0 UV-I 0 W/m² 11,8 °C 14,5 °C 1,6 km/h (1 Bft) 98,33 %
05.05.2026 00:40 22,9 °C 15,2 °C 13,9 °C 15,2 °C 15,2 °C 15,6 °C 15,6 °C 15,6 °C 15,0 °C 14,4 °C 46 % 82 % 0 lf 200 cb 200 cb 159 cb 88 cb 1009,7 hPa 0,0 l/m² 0,7 km/h (0 Bft) S 172 ° 0 min 0,000 mm 0,0 UV-I 0 W/m² 12,1 °C 15,2 °C 3,2 km/h (1 Bft) 95,73 %
04.05.2026 23:40 22,9 °C 15,4 °C 14,4 °C 15,3 °C 15,4 °C 15,6 °C 15,6 °C 15,6 °C 15,0 °C 14,4 °C 46 % 81 % 0 lf 200 cb 200 cb 158 cb 88 cb 1010,2 hPa 0,0 l/m² 0,0 km/h (0 Bft) S 172 ° 0 min 0,026 mm 0,0 UV-I 0 W/m² 12,2 °C 15,4 °C 0,0 km/h (0 Bft) 93,40 %
04.05.2026 22:40 22,9 °C 15,8 °C 14,4 °C 15,8 °C 15,8 °C 16,1 °C 16,1 °C 15,6 °C 15,0 °C 13,9 °C 46 % 80 % 10 lf 200 cb 200 cb 157 cb 87 cb 1010,1 hPa 0,0 l/m² 0,0 km/h (0 Bft) SO 127 ° 0 min 0,000 mm 0,0 UV-I 0 W/m² 12,4 °C 15,8 °C 0,0 km/h (0 Bft) 97,44 %
04.05.2026 21:40 22,9 °C 16,7 °C 15,6 °C 16,7 °C 16,7 °C 16,1 °C 16,1 °C 15,6 °C 15,0 °C 13,9 °C 46 % 76 % 1 lf 200 cb 200 cb 157 cb 87 cb 1009,9 hPa 0,0 l/m² 0,0 km/h (0 Bft) S-SW 194 ° 0 min 0,025 mm 0,0 UV-I 0 W/m² 12,4 °C 16,7 °C 0,0 km/h (0 Bft) 94,02 %
04.05.2026 20:40 23,0 °C 17,8 °C 16,1 °C 17,8 °C 17,9 °C 16,1 °C 16,1 °C 15,6 °C 15,0 °C 13,9 °C 46 % 72 % 0 lf 200 cb 200 cb 156 cb 86 cb 1010,0 hPa 0,0 l/m² 0,6 km/h (0 Bft) S-SW 194 ° 0 min 0,001 mm 0,0 UV-I 0 W/m² 12,7 °C 17,8 °C 3,2 km/h (1 Bft) 98,31 %
04.05.2026 19:40 23,0 °C 18,9 °C 17,8 °C 18,8 °C 19,1 °C 16,1 °C 16,1 °C 15,6 °C 15,0 °C 13,9 °C 45 % 69 % 0 lf 200 cb 200 cb 156 cb 86 cb 1010,1 hPa 0,0 l/m² 0,9 km/h (0 Bft) S-SW 193 ° 0 min 0,050 mm 0,0 UV-I 26 W/m² 13,1 °C 18,9 °C 3,2 km/h (1 Bft) 94,07 %
04.05.2026 18:40 23,0 °C 19,8 °C 18,9 °C 19,8 °C 19,9 °C 16,1 °C 16,1 °C 15,6 °C 15,0 °C 13,9 °C 45 % 62 % 0 lf 200 cb 200 cb 156 cb 86 cb 1010,0 hPa 0,0 l/m² 1,4 km/h (1 Bft) S-SW 204 ° 0 min 0,102 mm 0,0 UV-I 39 W/m² 12,3 °C 19,8 °C 3,2 km/h (1 Bft) 98,23 %
04.05.2026 17:40 23,0 °C 20,6 °C 19,4 °C 20,6 °C 20,6 °C 16,1 °C 16,1 °C 15,6 °C 15,0 °C 13,9 °C 44 % 58 % 2 lf 200 cb 200 cb 156 cb 86 cb 1009,9 hPa 0,0 l/m² 1,9 km/h (1 Bft) SW 228 ° 50 min 0,152 mm 0,5 UV-I 114 W/m² 12,0 °C 20,6 °C 4,8 km/h (1 Bft) 94,59 %
04.05.2026 16:40 23,1 °C 21,1 °C 20,6 °C 21,0 °C 21,1 °C 16,1 °C 16,1 °C 15,6 °C 15,0 °C 13,9 °C 44 % 49 % 0 lf 200 cb 200 cb 156 cb 86 cb 1009,8 hPa 0,0 l/m² 2,0 km/h (1 Bft) NW 325 ° 60 min 0,204 mm 0,9 UV-I 174 W/m² 10,0 °C 21,1 °C 6,4 km/h (2 Bft) 89,38 %
04.05.2026 15:40 23,1 °C 21,4 °C 20,6 °C 21,4 °C 21,6 °C 16,1 °C 16,1 °C 15,0 °C 15,0 °C 13,9 °C 45 % 50 % 0 lf 200 cb 200 cb 155 cb 86 cb 1010,1 hPa 0,0 l/m² 5,0 km/h (1 Bft) N-NW 346 ° 60 min 0,355 mm 1,3 UV-I 232 W/m² 10,5 °C 21,4 °C 9,7 km/h (2 Bft) 98,37 %
04.05.2026 14:40 23,1 °C 22,3 °C 22,8 °C 22,2 °C 22,4 °C 15,6 °C 15,6 °C 15,0 °C 15,0 °C 13,9 °C 45 % 48 % 0 lf 200 cb 200 cb 155 cb 86 cb 1010,6 hPa 0,0 l/m² 5,7 km/h (1 Bft) N-NW 327 ° 40 min 0,001 mm 2,9 UV-I 476 W/m² 10,8 °C 22,3 °C 12,9 km/h (3 Bft) 96,85 %
04.05.2026 14:00 23,0 °C 21,2 °C 21,7 °C 20,9 °C 21,3 °C 15,6 °C 15,6 °C 15,0 °C 15,0 °C 13,9 °C 45 % 50 % 0 lf 200 cb 200 cb 155 cb 86 cb 1010,9 hPa 0,0 l/m² 2,7 km/h (1 Bft) NW 320 ° 0 min 0,000 mm 3,3 UV-I 612 W/m² 10,4 °C 21,2 °C 6,4 km/h (2 Bft) 95,73 %
_ Min-Zeit 12:55 05:45 05:25 05:45 05:50 06:05 06:05 14:00 14:00 14:00 16:50 14:05 14:00 14:00 14:00 14:00 14:00 12:20 - 21:20 - - - - - - 14:05 05:45 21:20 18:05
Minimum _ 21,8 °C 12,2 °C 11,1 °C 12,2 °C 12,2 °C 14,4 °C 14,4 °C 15,0 °C 15,0 °C 13,9 °C 43 % 47 % 0 lf 200 cb 200 cb 155 cb 86 cb 1005,9 hPa - 0,0 km/h (0 Bft) - - - - - - 9,9 °C 12,2 °C 0,0 km/h (0 Bft) 89,08 %
_ Max-Zeit 14:40 14:40 14:10 14:40 14:40 15:10 15:10 16:25 14:00 23:30 13:10 05:45 13:30 14:00 14:00 12:50 05:05 14:00 14:00 12:25 - - 14:00 15:00 12:10 12:10 10:50 14:35 12:15 20:25
Maximum _ 23,1 °C 22,4 °C 22,8 °C 22,2 °C 22,4 °C 16,1 °C 16,1 °C 15,6 °C 15,0 °C 14,4 °C 50 % 89 % 15 lf 200 cb 200 cb 171 cb 89 cb 1010,9 hPa 0,0 l/m² 6,6 km/h
W-SW (2 Bft)
- - 5 min 0,355 mm 3,9 UV-I 700 W/m² 13,8 °C 22,3 °C 16,1 km/h
N (3 Bft)
100,00 %
Durchschnitt _ 22,9 °C 17,3 °C 16,5 °C 17,2 °C 17,3 °C 15,4 °C 15,4 °C 15,3 °C 15,0 °C 14,2 °C 46 % 71 % 1 lf 200 cb 200 cb 160 cb 88 cb 1008,7 hPa #0,0 l/m² 1,5 km/h (1 Bft) N-NW - #4:20 h #0,940 mm 1,4 UV-I 199 W/m² 11,7 °C 17,3 °C 4,2 km/h (1 Bft) 95,93 %
copy; 2009 Dieter Kraft